RJBB(METAR)
01/26 13:30
METAR RJBB 260430Z 04006KT 9999 FEW010 BKN/// 10/03 Q1023 NOSIG RMK
1CU010 A3022=
戻る
トップページへ戻る
IMOC Co,.Ltd.